Time;durP1;ratioP1;P1;durP2;ratioP2;P2;SDS_P1;SDS_P2;PMS_P1;PMS_P2;Temp;Humidity;BMP_temperature;BMP_pressure;BME280_temperature;BME280_humidity;BME280_pressure;Samples;Min_cycle;Max_cycle;Signal;HPM_P1;HPM_P2
2022/11/16 00:00:17;;;;;;;5.85;3.35;;;;;;;12.44;36.42;102529.72;4948576;28;20058;-78
2022/11/16 00:02:47;;;;;;;6.38;3.63;;;;;;;12.35;36.94;102525.88;4946846;28;20058;-79
2022/11/16 00:05:16;;;;;;;7.63;2.90;;;;;;;12.31;36.24;102536.91;4951373;28;20047;-80
2022/11/16 00:07:45;;;;;;;4.18;2.67;;;;;;;12.24;36.98;102534.81;4949794;28;20143;-77
2022/11/16 00:10:23;;;;;;;6.78;3.67;;;;;;;12.16;36.64;102530.94;4949547;28;20086;-76
2022/11/16 00:12:52;;;;;;;5.70;3.10;;;;;;;12.04;36.87;102531.19;4950694;28;20055;-76
2022/11/16 00:15:20;;;;;;;5.45;3.45;;;;;;;11.99;36.57;102542.16;4951775;28;20660;-78
2022/11/16 00:17:49;;;;;;;5.10;2.70;;;;;;;11.92;38.27;102546.13;4949606;28;20073;-77
2022/11/16 00:20:18;;;;;;;7.45;3.45;;;;;;;11.82;38.21;102544.72;4942710;28;20417;-77
2022/11/16 00:22:47;;;;;;;6.28;2.97;;;;;;;11.70;36.75;102542.38;4949752;28;20051;-80
2022/11/16 00:25:17;;;;;;;6.68;3.35;;;;;;;11.63;37.85;102547.13;4948988;28;20504;-80
2022/11/16 00:27:46;;;;;;;6.40;3.05;;;;;;;11.56;37.58;102551.09;4952415;28;20047;-76
2022/11/16 00:30:15;;;;;;;8.23;3.65;;;;;;;11.48;37.45;102550.69;4948227;28;20131;-76
2022/11/16 00:32:44;;;;;;;6.97;3.17;;;;;;;11.38;38.04;102545.78;4950013;28;20045;-76
2022/11/16 00:35:12;;;;;;;7.88;2.88;;;;;;;11.27;38.31;102544.31;4950144;28;20057;-77
2022/11/16 00:37:41;;;;;;;5.32;3.15;;;;;;;11.18;38.81;102543.81;4950848;28;20039;-76
2022/11/16 00:40:13;;;;;;;5.40;3.08;;;;;;;11.07;39.10;102541.53;4948034;28;20074;-76
2022/11/16 00:42:43;;;;;;;4.53;2.47;;;;;;;10.99;38.93;102550.53;4946656;28;20058;-78
2022/11/16 00:45:12;;;;;;;4.13;2.72;;;;;;;10.89;39.65;102548.25;4951955;28;20083;-75
2022/11/16 00:47:41;;;;;;;5.95;3.30;;;;;;;10.79;39.64;102545.94;4945909;28;20460;-77
2022/11/16 00:50:10;;;;;;;5.35;2.90;;;;;;;10.74;39.92;102552.53;4940646;28;20091;-76
2022/11/16 00:52:39;;;;;;;7.50;3.08;;;;;;;10.64;39.60;102541.66;4951767;28;20054;-78
2022/11/16 00:55:08;;;;;;;6.57;3.45;;;;;;;10.58;40.00;102553.34;4949474;28;20424;-77
2022/11/16 00:57:39;;;;;;;6.88;3.40;;;;;;;10.45;39.71;102536.22;4946559;28;20059;-76
2022/11/16 01:00:15;;;;;;;7.15;2.97;;;;;;;10.40;40.35;102551.50;4944138;28;20548;-78
2022/11/16 01:02:44;;;;;;;5.88;3.45;;;;;;;10.34;40.75;102555.41;4950695;28;20066;-77
2022/11/16 01:05:12;;;;;;;6.38;3.10;;;;;;;10.27;40.08;102554.13;4947984;28;20062;-79
2022/11/16 01:07:42;;;;;;;6.22;2.70;;;;;;;10.20;40.49;102558.03;4945834;28;20074;-76
2022/11/16 01:10:16;;;;;;;6.07;2.83;;;;;;;10.16;40.65;102557.75;4949234;28;20505;-75
2022/11/16 01:12:47;;;;;;;5.22;3.10;;;;;;;10.08;41.05;102562.47;4954382;28;20497;-76
2022/11/16 01:15:18;;;;;;;6.88;3.08;;;;;;;10.04;41.50;102566.56;4949233;28;20051;-76
2022/11/16 01:17:47;;;;;;;5.32;2.92;;;;;;;9.98;42.12;102565.28;4950666;28;20047;-76
2022/11/16 01:20:18;;;;;;;7.30;2.75;;;;;;;9.92;41.81;102572.66;4945070;28;20525;-75
2022/11/16 01:22:47;;;;;;;9.20;3.05;;;;;;;9.86;42.74;102571.50;4947261;28;20053;-77
2022/11/16 01:25:16;;;;;;;9.20;3.40;;;;;;;9.83;43.14;102565.25;4946625;28;20048;-76
2022/11/16 01:27:46;;;;;;;6.03;3.10;;;;;;;9.77;41.41;102570.94;4951289;28;20685;-77
2022/11/16 01:30:17;;;;;;;6.05;3.35;;;;;;;9.69;42.13;102561.81;4948992;28;20057;-79
2022/11/16 01:32:46;;;;;;;6.68;3.45;;;;;;;9.66;43.04;102561.63;4952920;28;20047;-79
2022/11/16 01:35:18;;;;;;;6.70;3.15;;;;;;;9.59;41.58;102559.44;4952179;28;20126;-78
2022/11/16 01:37:47;;;;;;;7.43;3.65;;;;;;;9.53;42.87;102559.06;4943455;28;20061;-79
2022/11/16 01:40:16;;;;;;;6.78;3.33;;;;;;;9.47;41.63;102554.41;4950760;28;20050;-80
2022/11/16 01:42:44;;;;;;;6.80;3.25;;;;;;;9.41;42.15;102564.34;4944885;28;20035;-80
2022/11/16 01:45:34;;;;;;;6.63;3.08;;;;;;;9.38;43.53;102566.75;4949424;28;20055;-78
2022/11/16 01:48:03;;;;;;;10.48;3.97;;;;;;;9.33;43.32;102571.63;4948789;28;20054;-82
2022/11/16 01:50:32;;;;;;;7.15;4.22;;;;;;;9.30;42.51;102566.28;4947432;28;20125;-77
2022/11/16 01:53:03;;;;;;;9.27;3.28;;;;;;;9.28;42.97;102556.63;4948674;28;20057;-80
2022/11/16 01:55:35;;;;;;;7.47;3.70;;;;;;;9.24;42.69;102565.88;4947832;28;20055;-76
2022/11/16 01:58:06;;;;;;;8.33;3.87;;;;;;;9.19;42.36;102552.66;4950804;28;20054;-75
2022/11/16 02:00:39;;;;;;;6.60;3.45;;;;;;;9.16;42.58;102554.16;4949797;28;20308;-75
2022/11/16 02:03:08;;;;;;;7.95;3.60;;;;;;;9.13;42.49;102553.97;4947310;28;20494;-76
2022/11/16 02:05:49;;;;;;;7.25;3.85;;;;;;;9.10;43.56;102566.69;4947025;28;20421;-76
2022/11/16 02:11:38;;;;;;;7.88;3.85;;;;;;;9.00;42.66;102560.03;4946803;28;20522;-77
2022/11/16 02:14:17;;;;;;;5.93;2.90;;;;;;;8.98;44.31;102562.53;4946160;28;20062;-77
2022/11/16 02:16:54;;;;;;;5.95;3.03;;;;;;;8.95;44.47;102566.56;4941217;28;20053;-78
2022/11/16 02:19:59;;;;;;;9.25;3.97;;;;;;;8.90;43.98;102574.03;4945968;28;20055;-80
2022/11/16 02:22:42;;;;;;;7.20;3.70;;;;;;;8.87;43.90;102578.09;4949318;28;20063;-80
2022/11/16 02:25:16;;;;;;;6.78;3.42;;;;;;;8.85;48.12;102580.59;4943788;28;20304;-83
2022/11/16 02:28:05;;;;;;;7.50;3.92;;;;;;;8.85;46.09;102596.06;4948203;28;20121;-80
2022/11/16 02:30:43;;;;;;;7.95;3.60;;;;;;;8.83;44.46;102597.66;4945086;28;20043;-78
2022/11/16 02:33:18;;;;;;;7.50;4.20;;;;;;;8.79;44.57;102596.53;4948879;28;20078;-82
2022/11/16 02:35:51;;;;;;;5.95;3.83;;;;;;;8.77;44.54;102594.66;4946725;28;20051;-80
2022/11/16 02:38:25;;;;;;;5.93;3.28;;;;;;;8.75;45.37;102593.66;4947846;28;20051;-79
2022/11/16 02:40:58;;;;;;;6.90;3.97;;;;;;;8.71;45.17;102597.75;4943640;28;20059;-80
2022/11/16 02:43:31;;;;;;;6.32;3.38;;;;;;;8.71;44.87;102596.84;4947981;28;20058;-79
2022/11/16 02:46:07;;;;;;;7.90;3.78;;;;;;;8.69;45.01;102601.00;4949672;28;20064;-83
2022/11/16 02:48:40;;;;;;;7.85;3.58;;;;;;;8.66;44.43;102608.53;4948244;28;20291;-81
2022/11/16 02:51:10;;;;;;;7.30;3.63;;;;;;;8.62;44.16;102597.13;4948853;28;20051;-82
2022/11/16 02:53:51;;;;;;;5.68;2.92;;;;;;;8.60;45.03;102604.75;4947240;28;20042;-81
2022/11/16 02:56:20;;;;;;;6.75;3.55;;;;;;;8.58;45.41;102600.28;4950193;28;20051;-84
2022/11/16 02:58:49;;;;;;;7.05;3.72;;;;;;;8.56;45.56;102612.19;4944243;28;20454;-77
2022/11/16 03:01:25;;;;;;;12.88;3.97;;;;;;;8.52;44.46;102607.59;4941934;28;20070;-78
2022/11/16 03:03:59;;;;;;;7.22;3.67;;;;;;;8.48;44.51;102606.53;4948699;28;20047;-80
2022/11/16 03:06:32;;;;;;;6.88;3.15;;;;;;;8.47;45.38;102617.63;4942344;28;20081;-78
2022/11/16 03:09:05;;;;;;;7.20;3.65;;;;;;;8.47;44.35;102612.44;4947750;28;20146;-80
2022/11/16 03:14:26;;;;;;;6.38;3.65;;;;;;;8.42;45.11;102619.00;4954909;28;20058;-78
2022/11/16 03:16:58;;;;;;;8.25;3.58;;;;;;;8.38;44.85;102617.88;4949761;28;20043;-78
2022/11/16 03:19:36;;;;;;;8.38;3.75;;;;;;;8.37;45.86;102617.75;4946455;28;20711;-79
2022/11/16 03:22:11;;;;;;;7.07;3.15;;;;;;;8.33;46.21;102610.59;4943542;28;20059;-78
2022/11/16 03:24:41;;;;;;;5.30;3.35;;;;;;;8.29;46.00;102611.16;4943307;28;20119;-77
2022/11/16 03:27:22;;;;;;;9.65;3.75;;;;;;;8.23;44.99;102616.81;4950784;28;20055;-78
2022/11/16 03:30:03;;;;;;;5.55;3.20;;;;;;;8.25;46.08;102616.94;4946805;28;20109;-77
2022/11/16 03:32:41;;;;;;;8.65;3.50;;;;;;;8.21;44.50;102612.34;4941331;28;20054;-78
2022/11/16 03:35:15;;;;;;;6.55;3.20;;;;;;;8.19;44.80;102612.22;4942451;28;20051;-77
2022/11/16 03:37:46;;;;;;;4.75;2.88;;;;;;;8.19;44.25;102609.66;4946192;28;20055;-78
2022/11/16 03:40:17;;;;;;;10.75;4.65;;;;;;;8.18;44.12;102608.75;4946273;28;20608;-77
2022/11/16 03:42:49;;;;;;;12.13;3.28;;;;;;;8.17;46.06;102616.38;4946506;28;20055;-77
2022/11/16 03:45:19;;;;;;;9.63;3.57;;;;;;;8.15;44.55;102617.97;4952162;28;20058;-77
2022/11/16 03:47:49;;;;;;;8.55;3.35;;;;;;;8.12;44.75;102622.91;4944484;28;20066;-78
2022/11/16 03:50:18;;;;;;;7.07;3.85;;;;;;;8.09;45.50;102621.03;4951121;28;20047;-78
2022/11/16 03:52:47;;;;;;;9.10;4.05;;;;;;;8.07;45.52;102622.59;4951182;28;20054;-79
2022/11/16 03:55:16;;;;;;;6.72;3.65;;;;;;;8.07;45.22;102620.03;4952152;28;20111;-78
2022/11/16 03:57:45;;;;;;;6.63;3.08;;;;;;;8.03;44.38;102615.44;4946891;28;20050;-79
2022/11/16 04:00:14;;;;;;;5.07;3.20;;;;;;;8.03;44.95;102620.59;4948987;28;20046;-79
2022/11/16 04:02:42;;;;;;;7.25;3.13;;;;;;;8.01;45.50;102624.72;4949512;28;20061;-77
2022/11/16 04:24:55;;;;;;;8.20;4.43;;;;;;;7.87;45.57;102631.50;4831812;29;20056;-83
2022/11/16 04:30:15;;;;;;;7.22;3.67;;;;;;;7.89;44.59;102649.66;4913327;29;20262;-81
2022/11/16 04:38:12;;;;;;;5.78;3.40;;;;;;;7.87;45.67;102656.38;4913527;29;20063;-80
2022/11/16 04:40:41;;;;;;;9.00;3.78;;;;;;;7.83;45.99;102651.78;4912872;29;20075;-80
2022/11/16 04:43:10;;;;;;;6.63;3.67;;;;;;;7.84;45.96;102663.91;4910381;29;20047;-81
2022/11/16 04:48:24;;;;;;;9.18;3.47;;;;;;;7.79;46.63;102668.75;4911121;29;20529;-79
2022/11/16 04:50:52;;;;;;;9.30;3.60;;;;;;;7.79;45.18;102670.41;4912475;29;20719;-83
2022/11/16 04:53:25;;;;;;;7.25;3.17;;;;;;;7.79;45.14;102666.16;4909059;29;20044;-84
2022/11/16 04:55:54;;;;;;;8.98;4.03;;;;;;;7.80;45.31;102659.31;4916807;29;20040;-84
2022/11/16 04:58:23;;;;;;;10.52;4.53;;;;;;;7.75;45.45;102656.41;4914009;29;20048;-82
2022/11/16 05:00:51;;;;;;;4.93;3.22;;;;;;;7.75;45.95;102672.75;4909161;29;21030;-79
2022/11/16 05:03:20;;;;;;;7.78;4.10;;;;;;;7.73;46.83;102669.19;4910242;29;20136;-80
2022/11/16 05:05:57;;;;;;;7.50;3.38;;;;;;;7.71;45.58;102680.16;4914135;29;20059;-78
2022/11/16 05:08:27;;;;;;;6.93;3.58;;;;;;;7.67;45.66;102673.91;4922016;28;20046;-82
2022/11/16 05:10:56;;;;;;;9.77;3.95;;;;;;;7.68;46.69;102682.53;4952849;28;20153;-81
2022/11/16 05:13:25;;;;;;;10.85;3.85;;;;;;;7.67;46.34;102679.06;4949090;28;20071;-87
2022/11/16 05:15:53;;;;;;;7.72;4.03;;;;;;;7.65;45.42;102678.06;4954804;28;20055;-87
2022/11/16 05:18:22;;;;;;;6.13;4.00;;;;;;;7.63;46.94;102687.34;4949981;28;20058;-85
2022/11/16 05:21:01;;;;;;;9.70;3.83;;;;;;;7.62;46.59;102685.53;4953033;28;20054;-85
2022/11/16 05:26:17;;;;;;;5.97;3.65;;;;;;;7.57;46.23;102686.91;4955242;28;20070;-81
2022/11/16 05:28:47;;;;;;;7.65;4.32;;;;;;;7.57;46.35;102686.91;4950571;28;20150;-89
2022/11/16 05:31:15;;;;;;;7.57;3.50;;;;;;;7.56;46.31;102690.28;4956100;28;20047;-87
2022/11/16 05:33:44;;;;;;;7.47;3.42;;;;;;;7.52;46.86;102686.56;4942941;28;20561;-78
2022/11/16 05:36:13;;;;;;;6.53;4.15;;;;;;;7.53;45.29;102690.03;4951092;28;20047;-84
2022/11/16 05:38:43;;;;;;;6.43;3.22;;;;;;;7.52;46.14;102689.16;4948396;28;20062;-84
2022/11/16 05:41:12;;;;;;;7.72;3.50;;;;;;;7.52;47.08;102688.25;4951293;28;20497;-84
2022/11/16 05:43:41;;;;;;;9.27;3.60;;;;;;;7.50;46.60;102697.53;4945501;28;20043;-83
2022/11/16 05:46:09;;;;;;;7.28;3.58;;;;;;;7.46;47.41;102700.69;4949706;28;20058;-85
2022/11/16 05:48:38;;;;;;;6.85;3.40;;;;;;;7.41;47.18;102690.03;4951529;28;20051;-83
2022/11/16 05:51:07;;;;;;;8.60;4.30;;;;;;;7.43;47.26;102703.03;4951104;28;20057;-84
2022/11/16 05:53:35;;;;;;;10.10;3.70;;;;;;;7.42;47.39;102698.66;4951105;28;20050;-78
2022/11/16 05:56:09;;;;;;;10.02;4.03;;;;;;;7.41;46.47;102704.59;4948063;28;20166;-77
2022/11/16 05:58:38;;;;;;;6.60;3.78;;;;;;;7.40;47.44;102702.78;4952156;28;20049;-82
2022/11/16 06:01:07;;;;;;;7.68;3.35;;;;;;;7.37;47.43;102702.56;4949209;28;20055;-77
2022/11/16 06:03:35;;;;;;;5.93;3.42;;;;;;;7.37;46.83;102712.88;4952334;28;20063;-77
2022/11/16 06:06:04;;;;;;;7.82;3.97;;;;;;;7.36;46.48;102698.22;4952217;28;20055;-82
2022/11/16 06:08:33;;;;;;;7.53;3.58;;;;;;;7.35;46.92;102699.88;4952633;28;20058;-87
2022/11/16 06:11:05;;;;;;;7.68;3.50;;;;;;;7.36;47.11;102700.81;4950186;28;20047;-85
2022/11/16 06:13:34;;;;;;;7.97;4.38;;;;;;;7.34;47.11;102698.09;4950590;28;20051;-80
2022/11/16 06:16:04;;;;;;;7.53;3.80;;;;;;;7.34;47.25;102704.13;4948489;28;20062;-86
2022/11/16 06:18:32;;;;;;;6.60;3.70;;;;;;;7.32;48.08;102700.56;4952410;28;20054;-83
2022/11/16 06:21:01;;;;;;;5.50;3.33;;;;;;;7.31;47.82;102709.06;4946919;28;20063;-83
2022/11/16 06:23:30;;;;;;;12.18;3.80;;;;;;;7.30;47.89;102712.41;4950278;28;20505;-80
2022/11/16 06:25:58;;;;;;;6.15;3.65;;;;;;;7.30;46.80;102712.41;4951240;28;20043;-84
2022/11/16 06:28:31;;;;;;;8.25;3.60;;;;;;;7.26;46.59;102702.69;4949528;28;20059;-82
2022/11/16 06:31:03;;;;;;;9.68;4.28;;;;;;;7.28;47.73;102708.84;4947686;28;20080;-84
2022/11/16 06:33:31;;;;;;;8.50;4.35;;;;;;;7.26;47.36;102710.41;4946771;28;20057;-80
2022/11/16 06:36:00;;;;;;;7.75;3.85;;;;;;;7.26;46.97;102720.72;4952890;28;20063;-83
2022/11/16 06:38:29;;;;;;;10.88;4.43;;;;;;;7.24;47.32;102706.84;4947856;28;20066;-86
2022/11/16 06:41:00;;;;;;;7.82;4.43;;;;;;;7.23;47.67;102712.75;4947876;28;20051;-87
2022/11/16 06:43:30;;;;;;;9.23;3.97;;;;;;;7.19;47.88;102713.28;4944177;28;20052;-82
2022/11/16 06:45:59;;;;;;;9.32;3.95;;;;;;;7.18;47.30;102720.94;4954416;28;20051;-84
2022/11/16 06:48:27;;;;;;;8.80;4.22;;;;;;;7.16;47.47;102720.81;4951172;28;20043;-82
2022/11/16 06:50:56;;;;;;;12.18;4.32;;;;;;;7.07;47.93;102708.13;4953706;28;20051;-85
2022/11/16 06:53:25;;;;;;;9.43;3.35;;;;;;;7.12;47.74;102721.34;4954283;28;20451;-85
2022/11/16 06:55:54;;;;;;;9.13;4.30;;;;;;;7.07;47.93;102712.38;4947825;28;20053;-84
2022/11/16 06:58:22;;;;;;;8.02;3.95;;;;;;;7.09;47.78;102721.13;4956503;28;20667;-85
2022/11/16 07:00:53;;;;;;;8.10;3.90;;;;;;;7.07;47.92;102726.16;4957039;28;20051;-89
2022/11/16 07:03:21;;;;;;;7.25;3.90;;;;;;;7.05;47.92;102726.81;4952751;28;20055;-84
2022/11/16 07:05:50;;;;;;;9.55;3.85;;;;;;;7.06;48.36;102733.78;4955677;28;20043;-84
2022/11/16 07:08:19;;;;;;;8.88;4.40;;;;;;;7.03;48.98;102736.09;4954703;28;20047;-89
2022/11/16 07:10:47;;;;;;;9.70;4.47;;;;;;;7.01;49.40;102732.50;4950132;28;20060;-78
2022/11/16 07:13:16;;;;;;;11.13;4.03;;;;;;;7.01;48.30;102735.09;4952914;28;20046;-79
2022/11/16 07:15:45;;;;;;;11.07;4.85;;;;;;;6.97;47.92;102736.53;4947768;28;20078;-78
2022/11/16 07:18:15;;;;;;;7.10;3.78;;;;;;;7.01;47.83;102743.72;4950115;28;20051;-78
2022/11/16 07:20:44;;;;;;;8.90;3.90;;;;;;;7.01;49.09;102753.09;4951989;28;20059;-79
2022/11/16 07:23:13;;;;;;;8.95;3.72;;;;;;;6.99;48.17;102749.53;4952452;28;20780;-79
2022/11/16 07:25:47;;;;;;;8.73;4.30;;;;;;;7.00;48.62;102748.75;4947626;28;20043;-79
2022/11/16 07:28:18;;;;;;;12.50;5.28;;;;;;;6.99;49.02;102754.69;4953766;28;20083;-79
2022/11/16 07:30:47;;;;;;;10.15;4.15;;;;;;;6.97;48.86;102751.09;4953168;28;20047;-77
2022/11/16 07:33:17;;;;;;;8.35;3.97;;;;;;;6.96;48.81;102755.31;4945692;28;20796;-78
2022/11/16 07:35:46;;;;;;;7.20;3.88;;;;;;;6.96;48.57;102749.28;4946113;28;20070;-79
2022/11/16 07:38:14;;;;;;;7.30;3.83;;;;;;;6.95;48.94;102747.50;4952668;28;20049;-78
2022/11/16 07:40:44;;;;;;;8.38;4.35;;;;;;;6.92;48.81;102753.31;4947304;28;20138;-78
2022/11/16 07:43:13;;;;;;;13.25;5.40;;;;;;;6.90;48.96;102755.78;4948750;28;20059;-79
2022/11/16 07:45:41;;;;;;;6.82;3.80;;;;;;;6.88;48.98;102757.31;4952168;28;20541;-78
2022/11/16 07:48:10;;;;;;;10.60;4.32;;;;;;;6.88;48.21;102749.59;4949633;28;20050;-79
2022/11/16 07:50:48;;;;;;;10.13;4.43;;;;;;;6.86;48.77;102748.59;4946911;28;20071;-79
2022/11/16 07:53:16;;;;;;;8.98;4.10;;;;;;;6.87;48.73;102745.25;4946920;28;20043;-77
2022/11/16 07:55:51;;;;;;;8.70;4.18;;;;;;;6.87;48.84;102745.25;4948685;28;20048;-77
2022/11/16 07:58:20;;;;;;;10.23;4.20;;;;;;;6.85;48.46;102744.22;4950302;28;20051;-78
2022/11/16 08:00:49;;;;;;;7.90;4.00;;;;;;;6.86;49.01;102739.97;4952319;28;20077;-78
2022/11/16 08:03:18;;;;;;;10.82;4.85;;;;;;;6.84;48.64;102738.97;4950720;28;20057;-78
2022/11/16 08:05:48;;;;;;;8.48;4.53;;;;;;;6.83;48.81;102739.75;4947434;28;20043;-78
2022/11/16 08:08:17;;;;;;;9.23;5.03;;;;;;;6.83;49.05;102738.06;4946216;28;20073;-77
2022/11/16 08:10:45;;;;;;;10.05;4.43;;;;;;;6.81;48.65;102739.63;4946266;28;20059;-78
2022/11/16 08:13:14;;;;;;;9.77;4.97;;;;;;;6.80;49.50;102754.94;4946083;28;20058;-76
2022/11/16 08:15:43;;;;;;;10.32;4.07;;;;;;;6.80;49.27;102750.69;4950159;28;20563;-77
2022/11/16 08:18:12;;;;;;;10.85;4.70;;;;;;;6.79;49.04;102751.47;4952202;28;20057;-80
2022/11/16 08:20:40;;;;;;;10.23;4.38;;;;;;;6.79;48.89;102755.72;4952787;28;20059;-78
2022/11/16 08:23:11;;;;;;;8.45;4.25;;;;;;;6.78;48.90;102751.34;4951392;28;20047;-76
2022/11/16 08:25:39;;;;;;;9.05;4.13;;;;;;;6.79;49.22;102753.16;4950785;28;20410;-78
2022/11/16 08:28:08;;;;;;;10.70;3.92;;;;;;;6.74;49.54;102757.94;4950807;28;20074;-77
2022/11/16 08:30:40;;;;;;;7.93;4.20;;;;;;;6.70;48.55;102745.63;4950398;28;20437;-78
2022/11/16 08:33:10;;;;;;;8.73;4.00;;;;;;;6.70;49.32;102756.81;4949308;28;20082;-79
2022/11/16 08:35:41;;;;;;;9.60;4.97;;;;;;;6.71;48.87;102758.63;4950724;28;20130;-78
2022/11/16 08:38:11;;;;;;;8.32;3.90;;;;;;;6.74;49.24;102760.53;4953270;28;20051;-78
2022/11/16 08:40:40;;;;;;;7.07;4.00;;;;;;;6.75;48.32;102758.84;4949310;28;20039;-79
2022/11/16 08:43:09;;;;;;;10.00;4.28;;;;;;;6.74;49.38;102752.81;4949712;28;20055;-77
2022/11/16 08:45:39;;;;;;;9.70;4.78;;;;;;;6.75;49.36;102756.28;4948644;28;20059;-76
2022/11/16 08:48:08;;;;;;;10.40;4.95;;;;;;;6.72;48.68;102759.50;4946520;28;20053;-76
2022/11/16 08:50:36;;;;;;;10.75;4.93;;;;;;;6.67;49.07;102761.72;4951548;28;20089;-78
2022/11/16 08:53:05;;;;;;;7.20;3.47;;;;;;;6.68;49.24;102760.03;4946207;28;20051;-78
2022/11/16 08:55:36;;;;;;;9.07;4.50;;;;;;;6.65;49.28;102755.56;4951642;28;20585;-78
2022/11/16 08:58:04;;;;;;;8.27;4.68;;;;;;;6.64;51.34;102752.84;4948086;28;20054;-78
2022/11/16 09:00:33;;;;;;;10.82;3.83;;;;;;;6.61;50.33;102761.25;4949838;28;20505;-78
2022/11/16 09:03:02;;;;;;;9.85;5.00;;;;;;;6.56;49.69;102762.56;4950934;28;20055;-78
2022/11/16 09:05:30;;;;;;;9.15;4.25;;;;;;;6.56;49.64;102766.81;4946727;28;20054;-77
2022/11/16 09:07:59;;;;;;;14.30;5.22;;;;;;;6.55;49.73;102776.22;4949412;28;20050;-76
2022/11/16 09:10:28;;;;;;;6.68;3.72;;;;;;;6.55;50.31;102765.94;4941841;28;20110;-79
2022/11/16 09:12:58;;;;;;;10.75;4.80;;;;;;;6.52;50.19;102767.34;4951420;28;20134;-78
2022/11/16 09:15:27;;;;;;;10.27;4.35;;;;;;;6.48;50.16;102767.13;4951511;28;20051;-77
2022/11/16 09:17:56;;;;;;;8.50;4.05;;;;;;;6.47;51.70;102769.56;4946386;28;20056;-78
2022/11/16 09:20:28;;;;;;;9.18;4.95;;;;;;;6.42;51.20;102763.16;4945961;28;20186;-77
2022/11/16 09:22:56;;;;;;;9.40;4.65;;;;;;;6.42;51.95;102760.59;4951998;28;20666;-76
2022/11/16 09:25:25;;;;;;;10.85;5.22;;;;;;;6.41;50.94;102759.66;4951402;28;20046;-78
2022/11/16 09:27:57;;;;;;;7.65;4.97;;;;;;;6.39;51.13;102753.53;4944933;28;20402;-77
2022/11/16 09:30:26;;;;;;;11.98;4.25;;;;;;;6.39;51.47;102747.47;4947986;28;20431;-79
2022/11/16 09:32:54;;;;;;;9.32;4.57;;;;;;;6.36;50.64;102750.72;4944832;28;20061;-78
2022/11/16 09:35:23;;;;;;;9.50;4.53;;;;;;;6.35;51.14;102748.03;4940712;28;20044;-77
2022/11/16 09:37:52;;;;;;;9.75;5.35;;;;;;;6.34;50.98;102743.66;4945568;28;20971;-79
2022/11/16 09:40:21;;;;;;;12.00;4.35;;;;;;;6.33;51.18;102742.78;4945104;28;20047;-76
2022/11/16 09:43:00;;;;;;;10.90;4.90;;;;;;;6.33;50.01;102747.03;4953234;28;20053;-78
2022/11/16 09:45:42;;;;;;;12.35;5.05;;;;;;;6.31;50.77;102744.31;4944110;28;20050;-78
2022/11/16 09:48:15;;;;;;;11.90;4.55;;;;;;;6.29;50.78;102740.72;4951447;28;20047;-78
2022/11/16 09:50:47;;;;;;;10.75;5.38;;;;;;;6.29;51.04;102741.63;4947032;28;20055;-77
2022/11/16 09:53:28;;;;;;;11.25;4.95;;;;;;;6.25;51.14;102742.19;4949961;28;20047;-77
2022/11/16 09:56:00;;;;;;;10.40;4.97;;;;;;;6.26;50.91;102746.53;4947195;28;20053;-77
2022/11/16 09:58:33;;;;;;;11.00;5.20;;;;;;;6.25;51.57;102754.09;4951471;28;20046;-78
2022/11/16 10:01:08;;;;;;;11.20;4.72;;;;;;;6.13;51.94;102736.03;4944845;28;20130;-79
2022/11/16 10:03:47;;;;;;;12.50;4.93;;;;;;;6.22;52.17;102759.91;4948203;28;20061;-79
2022/11/16 10:06:22;;;;;;;18.17;5.85;;;;;;;6.20;51.11;102755.44;4945588;28;20059;-78
2022/11/16 10:08:55;;;;;;;10.38;4.65;;;;;;;6.19;51.97;102759.69;4944534;28;20058;-79
2022/11/16 10:11:44;;;;;;;14.25;5.28;;;;;;;6.14;52.70;102757.50;4949354;28;20066;-77
2022/11/16 10:14:37;;;;;;;8.38;4.82;;;;;;;6.08;52.33;102756.25;4942909;28;20050;-78
2022/11/16 10:17:13;;;;;;;10.13;5.35;;;;;;;6.04;52.39;102754.19;4905735;28;20043;-77
2022/11/16 10:19:52;;;;;;;10.95;5.10;;;;;;;6.01;54.39;102768.50;4951578;28;20054;-78
2022/11/16 10:22:36;;;;;;;12.52;5.32;;;;;;;5.97;53.20;102766.44;4946374;28;20054;-78
2022/11/16 10:25:13;;;;;;;9.07;4.88;;;;;;;5.96;52.50;102767.22;4950301;28;20055;-78
2022/11/16 10:27:52;;;;;;;11.82;5.28;;;;;;;5.96;52.57;102764.66;4947175;28;20043;-77
2022/11/16 10:30:22;;;;;;;12.02;5.07;;;;;;;5.95;51.97;102768.00;4943663;28;20081;-78
2022/11/16 10:33:07;;;;;;;10.27;5.13;;;;;;;5.95;52.50;102761.16;4948653;28;20047;-78
2022/11/16 10:35:39;;;;;;;10.65;5.18;;;;;;;5.92;53.77;102758.34;4949479;28;20039;-78
2022/11/16 10:38:15;;;;;;;9.73;4.85;;;;;;;5.90;53.32;102765.00;4945454;28;20138;-78
2022/11/16 10:40:48;;;;;;;9.25;4.97;;;;;;;5.86;53.37;102757.81;4947038;28;20496;-79
2022/11/16 10:43:18;;;;;;;12.27;5.70;;;;;;;5.83;53.18;102748.22;4946414;28;20055;-77
2022/11/16 10:45:54;;;;;;;8.30;4.82;;;;;;;5.80;53.11;102759.94;4948794;28;20133;-78
2022/11/16 10:48:36;;;;;;;12.18;5.82;;;;;;;5.85;53.16;102768.91;4947997;28;20039;-77
2022/11/16 10:51:13;;;;;;;10.60;5.20;;;;;;;5.87;52.83;102757.06;4946863;28;20047;-78
2022/11/16 10:53:43;;;;;;;12.38;5.00;;;;;;;5.84;52.65;102756.81;4949173;28;20349;-79
2022/11/16 10:56:22;;;;;;;11.25;5.00;;;;;;;5.88;52.87;102762.31;4945005;28;20048;-79
2022/11/16 10:59:01;;;;;;;11.65;5.60;;;;;;;5.85;52.42;102754.38;4951300;28;20074;-78
2022/11/16 11:01:33;;;;;;;13.05;4.80;;;;;;;5.92;52.03;102766.03;4947521;28;20062;-78
2022/11/16 11:04:28;;;;;;;12.50;5.45;;;;;;;5.92;52.06;102763.47;4948496;28;20043;-79
2022/11/16 11:06:59;;;;;;;11.05;5.50;;;;;;;5.91;52.64;102755.63;4947376;28;20055;-78
2022/11/16 11:09:31;;;;;;;8.68;5.63;;;;;;;5.91;51.90;102756.56;4945798;28;20067;-79
2022/11/16 11:15:01;;;;;;;9.48;5.25;;;;;;;5.92;52.15;102750.63;4944908;28;20054;-79
2022/11/16 11:17:30;;;;;;;11.48;6.22;;;;;;;5.92;52.13;102749.72;4945541;28;20070;-77
2022/11/16 11:20:03;;;;;;;12.63;6.22;;;;;;;5.91;52.65;102736.00;4949586;28;20486;-78
2022/11/16 11:22:33;;;;;;;9.70;5.20;;;;;;;5.91;52.33;102736.00;4949347;28;20099;-78
2022/11/16 11:25:03;;;;;;;11.25;5.20;;;;;;;5.92;52.29;102737.78;4942499;28;20079;-77
2022/11/16 11:27:35;;;;;;;9.30;5.18;;;;;;;5.92;51.82;102740.34;4939558;28;20047;-79
2022/11/16 11:30:04;;;;;;;12.85;6.07;;;;;;;5.90;52.52;102744.47;4942922;28;20073;-77
2022/11/16 11:32:39;;;;;;;9.43;5.53;;;;;;;5.83;52.68;102737.94;4951521;28;20670;-79
2022/11/16 11:35:23;;;;;;;13.15;6.05;;;;;;;5.85;53.44;102743.19;4952198;28;20127;-78
2022/11/16 11:37:55;;;;;;;14.95;6.45;;;;;;;5.82;52.78;102740.41;4952848;28;20040;-77
2022/11/16 11:40:26;;;;;;;11.65;5.38;;;;;;;5.82;52.22;102737.81;4951592;28;20059;-79
2022/11/16 11:42:58;;;;;;;15.88;5.47;;;;;;;5.80;53.22;102737.69;4952624;28;20561;-78
2022/11/16 11:45:35;;;;;;;16.90;7.13;;;;;;;5.81;53.74;102738.59;4951593;28;20059;-78
2022/11/16 11:48:08;;;;;;;16.08;6.10;;;;;;;5.75;53.08;102738.06;4943890;28;20044;-79
2022/11/16 11:50:46;;;;;;;14.07;5.90;;;;;;;5.74;52.84;102733.72;4943634;28;20050;-78
2022/11/16 11:53:41;;;;;;;10.07;6.03;;;;;;;5.73;53.35;102729.38;4952318;28;20751;-79
2022/11/16 11:56:12;;;;;;;12.23;6.47;;;;;;;5.72;52.76;102732.72;4950022;28;20054;-78
2022/11/16 11:58:42;;;;;;;13.90;5.68;;;;;;;5.72;54.73;102737.84;4950010;28;20554;-76
2022/11/16 12:01:39;;;;;;;14.38;7.05;;;;;;;5.71;52.77;102725.78;4952560;28;20046;-77
2022/11/16 12:04:44;;;;;;;14.45;6.55;;;;;;;5.72;53.02;102730.13;4950788;28;20058;-78
2022/11/16 12:07:26;;;;;;;11.52;4.68;;;;;;;5.72;52.44;102749.00;4939396;28;20552;-78
2022/11/16 12:10:01;;;;;;;11.93;5.55;;;;;;;5.72;53.84;102735.28;4942551;28;20497;-76
2022/11/16 12:12:43;;;;;;;11.32;5.47;;;;;;;5.70;54.27;102737.72;4950945;28;20063;-77
2022/11/16 12:15:40;;;;;;;18.17;6.78;;;;;;;5.70;53.41;102729.13;4955195;28;20047;-77
2022/11/16 12:18:31;;;;;;;15.50;5.50;;;;;;;5.70;53.39;102730.00;4955852;28;20134;-78
2022/11/16 12:21:11;;;;;;;15.38;6.72;;;;;;;5.70;52.67;102724.88;4950891;28;20051;-77
2022/11/16 12:24:13;;;;;;;11.13;5.32;;;;;;;5.68;52.91;102726.44;4944532;28;20149;-78
2022/11/16 12:26:56;;;;;;;12.80;6.60;;;;;;;5.68;53.54;102716.16;4940107;28;20046;-78
2022/11/16 12:29:27;;;;;;;15.02;6.05;;;;;;;5.66;53.79;102723.75;4953848;28;20047;-79
2022/11/16 12:32:20;;;;;;;13.60;6.57;;;;;;;5.66;52.83;102735.69;4942577;28;20103;-80
2022/11/16 12:35:14;;;;;;;16.17;6.00;;;;;;;5.66;52.71;102736.59;4947023;28;20047;-77